KENV

Wendover Airport

Wendover, Utah, USA
KENV 191727Z 1918/2018 VRB04KT P6SM SKC
Issued Valid From Valid To
Nov-19 @ 17:27 UTC
(5 hours ago)
Nov-19 @ 18:00 UTC
(5 hours ago)
Nov-20 @ 18:00 UTC
(in 19 hours)
Nov-19 @ 18:00 to Nov-20 @ 18:00
KENV 191727Z 1918/2018 VRB04KT P6SM SKC
Wind Visibility Clouds
Variable at 4 knots Greater than 6 miles
  • Clear skies
KENV 191727Z 1918/2018 VRB04KT P6SM SKC
Issued Nov-19 @ 17:27 UTC
(5 hours ago)
Valid From Nov-19 @ 18:00 UTC
(5 hours ago)
Valid To Nov-20 @ 18:00 UTC
(in 19 hours)
Nov-19 @ 18:00 - Nov-20 @ 18:00
Wind Visibility
Variable at 4 knots Greater than 6 miles
Clouds
  • Clear skies